Time;durP1;ratioP1;P1;durP2;ratioP2;P2;SDS_P1;SDS_P2;PMS_P1;PMS_P2;Temp;Humidity;BMP_temperature;BMP_pressure;BME280_temperature;BME280_humidity;BME280_pressure;Samples;Min_cycle;Max_cycle;Signal;HPM_P1;HPM_P2
2024/01/25 00:00:21;;;;;;;;;3.00;3.00;;;;;13.15;69.21;101946.19;5119823;27;45579;-69
2024/01/25 00:02:46;;;;;;;;;2.00;2.00;;;;;13.05;69.25;101938.75;5119740;27;45499;-69
2024/01/25 00:05:12;;;;;;;;;2.00;2.00;;;;;13.24;69.18;101972.78;5119281;27;45237;-71
2024/01/25 00:07:48;;;;;;;;;2.00;2.00;;;;;13.21;68.92;101975.31;5119798;27;45466;-71
2024/01/25 00:10:16;;;;;;;;;3.25;3.00;;;;;13.18;68.95;101972.53;5119742;27;45279;-69
2024/01/25 00:12:42;;;;;;;;;4.75;4.75;;;;;13.17;69.00;101970.75;5119694;27;45379;-69
2024/01/25 00:15:09;;;;;;;;;3.75;3.00;;;;;12.97;68.73;101945.38;5119540;27;46006;-69
2024/01/25 00:17:34;;;;;;;;;3.00;3.00;;;;;12.91;69.47;101935.53;5119340;27;45355;-69
2024/01/25 00:20:00;;;;;;;;;3.00;3.00;;;;;12.84;69.60;101918.66;5119396;27;45482;-71
2024/01/25 00:22:26;;;;;;;;;3.75;2.00;;;;;13.09;69.50;101953.78;5119526;27;45318;-71
2024/01/25 00:24:51;;;;;;;;;3.00;2.25;;;;;13.00;69.13;101938.56;5119320;27;45491;-70
2024/01/25 00:27:17;;;;;;;;;4.25;4.00;;;;;13.12;69.33;101961.78;5119271;27;45290;-71
2024/01/25 00:29:43;;;;;;;;;5.00;4.00;;;;;13.10;69.03;101959.09;5119363;27;45438;-69
2024/01/25 00:32:09;;;;;;;;;3.25;3.25;;;;;13.08;68.77;101954.63;5119760;27;45236;-69
2024/01/25 00:34:35;;;;;;;;;2.75;2.75;;;;;12.87;69.16;101918.78;5118876;27;46039;-68
2024/01/25 00:37:00;;;;;;;;;2.75;1.75;;;;;13.04;69.09;101957.94;5119297;27;45355;-69
2024/01/25 00:39:26;;;;;;;;;1.00;1.00;;;;;13.01;68.87;101948.22;5119009;27;45457;-71
2024/01/25 00:42:02;;;;;;;;;1.75;1.75;;;;;13.00;68.81;101945.53;5119322;27;45458;-69
2024/01/25 00:44:28;;;;;;;;;2.75;1.00;;;;;12.97;68.73;101946.31;5118793;27;46119;-68
2024/01/25 00:46:54;;;;;;;;;2.00;2.00;;;;;12.98;68.96;101939.34;5118906;27;45591;-69
2024/01/25 00:49:20;;;;;;;;;4.00;1.00;;;;;12.99;68.93;101941.09;5118883;27;45491;-69
2024/01/25 00:51:47;;;;;;;;;1.00;1.00;;;;;12.91;68.53;101931.19;5118943;27;45428;-71
2024/01/25 00:54:15;;;;;;;;;2.25;1.50;;;;;12.93;68.75;101934.78;5118620;27;45349;-70
2024/01/25 00:56:41;;;;;;;;;1.00;1.00;;;;;12.92;68.53;101927.72;5117877;27;45574;-69
2024/01/25 00:59:07;;;;;;;;;1.00;1.00;;;;;12.89;68.80;101927.63;5118814;27;45478;-69
2024/01/25 01:01:33;;;;;;;;;1.25;1.25;;;;;12.90;68.48;101918.91;5117179;27;45492;-70
2024/01/25 01:03:59;;;;;;;;;2.00;1.00;;;;;12.90;68.68;101924.16;5118246;27;45389;-69
2024/01/25 01:06:25;;;;;;;;;2.00;2.00;;;;;12.89;68.72;101917.13;5118254;27;45330;-71
2024/01/25 01:08:52;;;;;;;;;0.00;0.00;;;;;12.70;68.20;101883.09;5118037;27;45320;-70
2024/01/25 01:11:18;;;;;;;;;2.00;2.00;;;;;12.85;68.33;101914.28;5116914;27;45486;-69
2024/01/25 01:13:44;;;;;;;;;1.25;1.25;;;;;12.82;68.37;101912.44;5118233;27;46039;-71
2024/01/25 01:16:10;;;;;;;;;1.00;1.00;;;;;12.80;68.54;101911.47;5117346;27;45412;-70
2024/01/25 01:18:38;;;;;;;;;1.00;1.00;;;;;12.80;68.34;101907.97;5118006;27;45481;-71
2024/01/25 01:21:04;;;;;;;;;1.00;1.00;;;;;12.77;68.08;101899.97;5118319;27;45563;-69
2024/01/25 01:23:30;;;;;;;;;2.00;2.00;;;;;12.76;68.55;101899.06;5118436;27;45462;-68
2024/01/25 01:25:55;;;;;;;;;1.00;1.00;;;;;12.74;68.39;101891.13;5118457;27;45296;-70
2024/01/25 01:28:21;;;;;;;;;1.50;1.25;;;;;12.75;68.37;101892.03;5118281;27;45385;-69
2024/01/25 01:30:46;;;;;;;;;2.00;2.00;;;;;12.76;68.50;101887.69;5118621;27;45248;-69
2024/01/25 01:33:12;;;;;;;;;1.00;1.00;;;;;12.73;68.04;101881.50;5118326;27;45620;-71
2024/01/25 01:35:38;;;;;;;;;2.75;2.00;;;;;12.71;68.21;101880.53;5118195;27;45477;-68
2024/01/25 01:38:03;;;;;;;;;0.75;0.75;;;;;12.67;68.22;101877.69;5118285;27;45546;-69
2024/01/25 01:40:29;;;;;;;;;1.00;0.25;;;;;12.66;68.02;101879.44;5118382;27;45482;-69
2024/01/25 01:43:01;;;;;;;;;1.00;1.00;;;;;12.64;68.16;101874.97;5118071;27;45348;-69
2024/01/25 01:45:27;;;;;;;;;1.00;1.00;;;;;12.44;67.34;101846.16;5118094;27;45426;-69
2024/01/25 01:47:54;;;;;;;;;2.50;1.75;;;;;12.54;67.73;101866.69;5118200;27;45301;-70
2024/01/25 01:50:20;;;;;;;;;1.00;1.00;;;;;12.54;67.39;101874.56;5118097;27;45529;-69
2024/01/25 01:52:48;;;;;;;;;1.00;1.00;;;;;12.23;67.57;101811.16;5118093;27;45455;-70
2024/01/25 01:55:13;;;;;;;;;2.00;2.00;;;;;12.48;68.27;101860.28;5118453;27;45454;-69
2024/01/25 01:57:39;;;;;;;;;1.00;1.00;;;;;12.49;68.30;101863.00;5118027;27;45610;-68
2024/01/25 02:00:08;;;;;;;;;2.00;2.00;;;;;12.51;68.77;101858.72;5118208;27;45632;-69
2024/01/25 02:02:34;;;;;;;;;2.75;2.00;;;;;12.53;68.70;101859.66;5117755;27;45549;-69
2024/01/25 02:05:00;;;;;;;;;2.00;2.00;;;;;12.52;68.38;101851.72;5117756;27;45312;-69
2024/01/25 02:07:26;;;;;;;;;2.00;2.00;;;;;12.55;68.96;101851.84;5118095;27;45474;-69
2024/01/25 02:09:51;;;;;;;;;1.75;1.75;;;;;12.58;68.67;101853.72;5118222;27;45573;-70
2024/01/25 02:12:17;;;;;;;;;1.50;1.50;;;;;12.57;68.30;101855.44;5117602;27;45454;-69
2024/01/25 02:14:43;;;;;;;;;1.00;1.00;;;;;12.60;68.65;101849.44;5117910;27;45430;-69
2024/01/25 02:17:09;;;;;;;;;4.00;2.25;;;;;12.58;68.26;101846.75;5117865;27;45481;-71
2024/01/25 02:19:35;;;;;;;;;0.00;0.00;;;;;12.57;68.23;101833.56;5118356;27;45261;-68
2024/01/25 02:22:04;;;;;;;;;1.50;1.00;;;;;12.56;68.63;101831.78;5121236;27;45449;-68
2024/01/25 02:24:29;;;;;;;;;2.00;2.00;;;;;12.59;68.19;101832.78;5121219;27;45486;-69
2024/01/25 02:26:55;;;;;;;;;3.25;2.75;;;;;12.58;68.03;101823.16;5119895;27;45344;-71
2024/01/25 02:29:21;;;;;;;;;4.00;3.50;;;;;12.59;68.28;101810.94;5121496;27;45355;-69
2024/01/25 02:31:46;;;;;;;;;4.00;3.00;;;;;12.56;67.69;101808.22;5121275;27;45355;-70
2024/01/25 02:34:12;;;;;;;;;2.25;2.25;;;;;12.57;68.03;101820.47;5120917;27;45340;-71
2024/01/25 02:36:37;;;;;;;;;3.75;3.00;;;;;12.56;67.67;101810.81;5121091;27;45372;-69
2024/01/25 02:39:04;;;;;;;;;4.00;4.00;;;;;12.56;67.82;101811.72;5121281;27;45360;-69
2024/01/25 02:41:31;;;;;;;;;5.25;3.50;;;;;12.57;67.57;101817.84;5120861;27;46240;-71
2024/01/25 02:43:56;;;;;;;;;9.50;8.50;;;;;12.54;68.16;101806.41;5120747;27;45292;-71
2024/01/25 02:46:22;;;;;;;;;11.00;11.00;;;;;12.56;68.76;101803.84;5120897;27;45467;-70
2024/01/25 02:48:48;;;;;;;;;13.00;10.25;;;;;12.53;68.13;101801.09;5121441;27;45397;-71
2024/01/25 02:51:14;;;;;;;;;10.50;10.00;;;;;12.53;68.77;101816.81;5120516;27;45507;-71
2024/01/25 02:53:40;;;;;;;;;10.00;9.50;;;;;12.56;68.66;101798.59;5120858;27;45378;-69
2024/01/25 02:56:06;;;;;;;;;4.25;4.25;;;;;12.59;68.52;101789.97;5120840;27;45443;-71
2024/01/25 02:58:31;;;;;;;;;2.25;2.25;;;;;12.63;68.43;101786.63;5120907;27;45319;-71
2024/01/25 03:00:57;;;;;;;;;4.00;3.00;;;;;12.70;68.32;101794.81;5120517;27;45451;-69
2024/01/25 03:03:23;;;;;;;;;2.25;2.00;;;;;12.65;68.00;101777.09;5120806;27;45347;-71
2024/01/25 03:05:49;;;;;;;;;3.25;3.00;;;;;12.62;67.90;101774.38;5121302;27;45282;-71
2024/01/25 03:08:15;;;;;;;;;3.00;3.00;;;;;12.72;67.65;101794.91;5120909;27;45482;-71
2024/01/25 03:10:40;;;;;;;;;1.75;1.00;;;;;12.56;67.43;101758.41;5120372;27;45968;-71
2024/01/25 03:13:06;;;;;;;;;2.00;1.75;;;;;12.73;67.81;101786.19;5120458;27;45509;-69
2024/01/25 03:15:32;;;;;;;;;2.00;2.00;;;;;12.77;67.39;101784.59;5120661;27;45239;-70
2024/01/25 03:17:57;;;;;;;;;2.75;2.00;;;;;12.73;67.00;101780.94;5120690;27;45204;-69
2024/01/25 03:20:23;;;;;;;;;1.00;1.00;;;;;12.76;67.12;101781.06;5120511;27;45731;-69
2024/01/25 03:22:49;;;;;;;;;2.00;1.25;;;;;12.78;67.00;101776.78;5120732;27;45346;-71
2024/01/25 03:25:14;;;;;;;;;1.00;1.00;;;;;12.61;66.51;101752.50;5120553;27;45389;-71
2024/01/25 03:27:40;;;;;;;;;1.75;1.75;;;;;12.77;66.50;101780.22;5120530;27;45348;-68
2024/01/25 03:30:06;;;;;;;;;2.00;1.00;;;;;12.78;66.50;101778.53;5118846;27;45544;-69
2024/01/25 03:32:33;;;;;;;;;1.00;1.00;;;;;12.57;66.06;101742.72;5119048;27;45442;-71
2024/01/25 03:34:59;;;;;;;;;1.00;1.00;;;;;12.78;65.90;101779.41;5120442;27;45523;-71
2024/01/25 03:37:25;;;;;;;;;2.00;1.00;;;;;12.54;65.78;101730.38;5120418;27;45507;-69
2024/01/25 03:39:50;;;;;;;;;0.75;0.75;;;;;12.76;65.38;101769.69;5120439;27;45546;-71
2024/01/25 03:42:16;;;;;;;;;1.00;0.00;;;;;12.73;65.25;101773.06;5120015;27;45991;-69
2024/01/25 03:44:42;;;;;;;;;0.50;0.50;;;;;12.57;64.81;101745.34;5120199;27;45361;-71
2024/01/25 03:47:08;;;;;;;;;0.00;0.00;;;;;12.64;65.49;101764.84;5120464;27;45159;-70
2024/01/25 03:49:34;;;;;;;;;1.00;1.00;;;;;12.54;65.39;101748.72;5119784;27;46142;-69
2024/01/25 03:51:59;;;;;;;;;0.67;0.67;;;;;12.64;65.09;101763.13;5119681;27;45574;-69
2024/01/25 03:54:25;;;;;;;;;1.00;1.00;;;;;12.64;64.98;101759.59;5119970;27;45297;-69
2024/01/25 03:56:51;;;;;;;;;0.00;0.00;;;;;12.62;65.15;101758.66;5120407;27;45228;-71
2024/01/25 03:59:16;;;;;;;;;2.00;1.00;;;;;12.64;65.22;101754.38;5119657;27;46197;-71
2024/01/25 04:01:47;;;;;;;;;0.00;0.00;;;;;12.65;64.88;101756.13;5119707;27;45277;-71
2024/01/25 04:04:15;;;;;;;;;0.00;0.00;;;;;12.65;64.75;101766.63;5119964;27;45536;-72
2024/01/25 04:06:46;;;;;;;;;1.25;1.25;;;;;12.63;64.88;101761.31;5119888;27;45172;-71
2024/01/25 04:09:13;;;;;;;;;1.00;1.00;;;;;12.62;64.99;101761.28;5119417;27;45338;-71
2024/01/25 04:11:39;;;;;;;;;1.00;1.00;;;;;12.61;64.54;101760.34;5119418;27;45464;-71
2024/01/25 04:14:05;;;;;;;;;1.00;0.00;;;;;12.45;64.59;101739.59;5119770;27;45529;-71
2024/01/25 04:16:31;;;;;;;;;0.75;0.00;;;;;12.57;64.41;101763.69;5118380;27;45358;-71
2024/01/25 04:18:57;;;;;;;;;0.00;0.00;;;;;12.54;64.44;101759.22;5119473;27;46127;-70
2024/01/25 04:21:23;;;;;;;;;0.00;0.00;;;;;12.51;64.29;101755.56;5119655;27;45245;-71
2024/01/25 04:23:48;;;;;;;;;0.00;0.00;;;;;12.50;64.20;101752.06;5119562;27;45309;-71
2024/01/25 04:26:16;;;;;;;;;0.75;0.00;;;;;12.50;64.47;101759.03;5119650;27;45424;-71
2024/01/25 04:28:42;;;;;;;;;0.00;0.00;;;;;12.46;64.13;101752.78;5119335;27;45313;-71
2024/01/25 04:31:07;;;;;;;;;0.00;0.00;;;;;12.46;64.26;101747.53;5119263;27;45217;-71
2024/01/25 04:33:33;;;;;;;;;1.00;1.00;;;;;12.32;64.13;101719.84;5119525;27;45406;-70
2024/01/25 04:35:59;;;;;;;;;0.00;0.00;;;;;12.30;64.28;101721.53;5119578;27;45202;-69
2024/01/25 04:38:25;;;;;;;;;1.00;0.00;;;;;12.46;64.13;101752.78;5119325;27;45985;-71
2024/01/25 04:40:51;;;;;;;;;0.33;0.00;;;;;12.47;64.13;101741.47;5119576;27;45259;-69
2024/01/25 04:43:16;;;;;;;;;0.00;0.00;;;;;12.45;64.25;101745.72;5118890;27;45417;-71
2024/01/25 04:45:42;;;;;;;;;0.33;0.00;;;;;12.29;63.91;101709.25;5119535;27;45414;-71
2024/01/25 04:48:08;;;;;;;;;1.00;1.00;;;;;12.49;64.27;101747.66;5118987;27;45454;-71
2024/01/25 04:50:34;;;;;;;;;0.00;0.00;;;;;12.38;63.58;101724.47;5118841;27;45475;-71
2024/01/25 04:53:02;;;;;;;;;0.00;0.00;;;;;12.54;63.57;101748.72;5119012;27;45346;-70
2024/01/25 04:55:27;;;;;;;;;0.00;0.00;;;;;12.56;63.51;101745.28;5119156;27;45201;-71
2024/01/25 04:57:53;;;;;;;;;0.00;0.00;;;;;12.57;63.26;101739.19;5119134;27;45872;-69
2024/01/25 05:00:21;;;;;;;;;0.00;0.00;;;;;12.56;63.37;101737.44;5118944;27;45377;-71
2024/01/25 05:02:47;;;;;;;;;0.00;0.00;;;;;12.43;62.89;101715.06;5119337;27;45400;-71
2024/01/25 05:05:13;;;;;;;;;2.75;2.75;;;;;12.21;63.50;101689.69;5119081;27;45202;-69
2024/01/25 05:07:39;;;;;;;;;1.00;1.00;;;;;12.47;63.44;101737.94;5118299;27;45590;-71
2024/01/25 05:10:05;;;;;;;;;0.00;0.00;;;;;12.48;63.51;101735.38;5118476;27;45585;-69
2024/01/25 05:12:31;;;;;;;;;0.00;0.00;;;;;12.41;63.60;101737.69;5118721;27;45509;-71
2024/01/25 05:14:56;;;;;;;;;0.00;0.00;;;;;12.27;63.46;101718.75;5119054;27;45509;-71
2024/01/25 05:17:22;;;;;;;;;0.33;0.00;;;;;12.36;63.40;101729.63;5118427;27;45480;-70
2024/01/25 05:19:47;;;;;;;;;0.25;0.00;;;;;12.34;63.33;101734.81;5118825;27;45853;-70
2024/01/25 05:22:13;;;;;;;;;0.00;0.00;;;;;12.32;63.67;101735.59;5118519;27;45225;-71
2024/01/25 05:24:39;;;;;;;;;0.00;0.00;;;;;12.30;63.58;101727.66;5118904;27;45497;-71
2024/01/25 05:27:05;;;;;;;;;0.00;0.00;;;;;12.31;63.54;101723.28;5118410;27;45950;-71
2024/01/25 05:29:30;;;;;;;;;0.00;0.00;;;;;12.17;63.70;101691.28;5118463;27;45468;-71
2024/01/25 05:31:56;;;;;;;;;1.00;0.00;;;;;12.32;63.71;101723.38;5118859;27;45303;-69
2024/01/25 05:34:21;;;;;;;;;0.33;0.33;;;;;12.29;63.47;101717.97;5118748;27;45233;-71
2024/01/25 05:36:47;;;;;;;;;0.75;0.75;;;;;12.32;63.38;101723.38;5118254;27;46001;-70
2024/01/25 05:39:14;;;;;;;;;0.00;0.00;;;;;12.29;63.31;101717.97;5118317;27;45399;-71
2024/01/25 05:41:40;;;;;;;;;1.00;0.00;;;;;12.08;63.66;101689.19;5118621;27;45452;-69
2024/01/25 05:44:06;;;;;;;;;0.00;0.00;;;;;12.29;63.53;101722.34;5118342;27;45416;-71
2024/01/25 05:46:31;;;;;;;;;1.00;0.00;;;;;12.29;63.33;101724.97;5118215;27;45398;-69
2024/01/25 05:48:57;;;;;;;;;61.25;49.25;;;;;12.29;63.23;101724.97;5118369;27;45289;-71
2024/01/25 05:51:23;;;;;;;;;4.25;4.00;;;;;12.30;63.39;101732.00;5117940;27;45389;-71
2024/01/25 05:53:48;;;;;;;;;1.00;1.00;;;;;12.24;63.40;101722.16;5118446;27;45490;-69
2024/01/25 05:56:14;;;;;;;;;1.00;1.00;;;;;12.27;63.54;101729.25;5120916;27;45289;-71
2024/01/25 05:58:39;;;;;;;;;0.00;0.00;;;;;12.20;63.37;101720.25;5119890;27;45341;-68
2024/01/25 06:01:07;;;;;;;;;0.00;0.00;;;;;12.23;63.34;101719.47;5121695;27;45434;-70
2024/01/25 06:03:32;;;;;;;;;0.00;0.00;;;;;12.27;63.48;101729.25;5121664;27;45517;-69
2024/01/25 06:05:58;;;;;;;;;19.75;17.50;;;;;12.23;63.50;101720.34;5121401;27;45521;-71
2024/01/25 06:08:24;;;;;;;;;8.00;8.00;;;;;12.29;63.32;101735.44;5121158;27;45417;-68
2024/01/25 06:10:50;;;;;;;;;71.50;54.25;;;;;12.08;63.17;101699.66;5121214;27;45417;-71
2024/01/25 06:13:15;;;;;;;;;121.67;91.67;;;;;12.13;62.76;101708.59;5121288;27;45341;-69
2024/01/25 06:15:41;;;;;;;;;234.25;174.25;;;;;12.28;63.10;101733.66;5121137;27;45877;-70
2024/01/25 06:18:07;;;;;;;;;90.67;73.33;;;;;12.28;63.02;101731.03;5121155;27;45340;-70
2024/01/25 06:20:32;;;;;;;;;76.25;56.50;;;;;12.24;63.18;101729.13;5121179;27;45314;-70
2024/01/25 06:22:58;;;;;;;;;78.33;61.67;;;;;12.05;63.31;101694.28;5121675;27;45246;-71
2024/01/25 06:25:24;;;;;;;;;31.25;29.00;;;;;12.28;62.94;101725.81;5120682;27;45903;-71
2024/01/25 06:27:50;;;;;;;;;41.50;33.75;;;;;12.24;62.95;101724.78;5121027;27;45357;-70
2024/01/25 06:30:15;;;;;;;;;11.00;11.00;;;;;12.27;63.09;101731.84;5120979;27;45480;-68
2024/01/25 06:32:41;;;;;;;;;21.25;19.50;;;;;12.26;63.17;101728.34;5120863;27;45637;-68
2024/01/25 06:35:07;;;;;;;;;7.50;6.25;;;;;12.26;63.01;101728.34;5120834;27;45994;-69
2024/01/25 06:37:33;;;;;;;;;46.75;38.75;;;;;12.26;62.80;101737.94;5120754;27;45463;-70
2024/01/25 06:39:58;;;;;;;;;55.50;46.75;;;;;12.22;63.01;101736.91;5121147;27;45443;-71
2024/01/25 06:42:24;;;;;;;;;10.00;9.25;;;;;12.23;62.80;101743.03;5121093;27;45354;-68
2024/01/25 06:44:50;;;;;;;;;2.00;2.00;;;;;12.26;62.65;101743.19;5120794;27;45518;-68
2024/01/25 06:47:15;;;;;;;;;0.00;0.00;;;;;12.26;62.57;101727.47;5120741;27;45482;-68
2024/01/25 06:49:41;;;;;;;;;0.00;0.00;;;;;12.28;62.19;101736.28;5120625;27;45450;-69
2024/01/25 06:52:06;;;;;;;;;1.00;1.00;;;;;12.31;62.19;101736.41;5120533;27;45356;-70
2024/01/25 06:54:32;;;;;;;;;41.25;38.00;;;;;12.33;62.18;101740.91;5120277;27;45561;-68
2024/01/25 06:56:58;;;;;;;;;24.00;21.50;;;;;12.22;62.28;101729.06;5120486;27;45450;-68
2024/01/25 06:59:23;;;;;;;;;19.00;18.00;;;;;12.06;62.57;101698.69;5120517;27;45352;-70
2024/01/25 07:01:49;;;;;;;;;11.25;10.50;;;;;12.24;62.29;101735.25;5120588;27;45463;-68
2024/01/25 07:04:15;;;;;;;;;12.50;12.50;;;;;12.25;62.26;101747.50;5120106;27;46066;-68
2024/01/25 07:06:41;;;;;;;;;1.00;1.00;;;;;12.23;62.29;101724.69;5118615;27;45555;-68
2024/01/25 07:09:07;;;;;;;;;2.00;1.50;;;;;12.28;61.83;101736.28;5120419;27;45476;-68
2024/01/25 07:11:32;;;;;;;;;87.67;73.33;;;;;12.28;61.77;101742.41;5120254;27;45551;-70
2024/01/25 07:13:58;;;;;;;;;60.75;48.00;;;;;12.29;61.79;101741.56;5118677;27;45480;-70
2024/01/25 07:16:24;;;;;;;;;22.25;21.00;;;;;12.32;61.74;101740.81;5119663;27;45625;-71
2024/01/25 07:18:49;;;;;;;;;4.50;4.00;;;;;12.32;61.47;101743.44;5119628;27;45406;-69
2024/01/25 07:21:15;;;;;;;;;9.50;8.00;;;;;12.34;61.55;101742.66;5119796;27;45394;-70
2024/01/25 07:23:41;;;;;;;;;8.00;8.00;;;;;12.34;61.24;101741.78;5119355;27;45381;-70
2024/01/25 07:26:07;;;;;;;;;15.00;14.50;;;;;12.35;61.50;101738.31;5119390;27;45468;-70
2024/01/25 07:28:32;;;;;;;;;5.00;4.25;;;;;12.37;61.64;101738.38;5117026;27;45271;-71
2024/01/25 07:30:58;;;;;;;;;8.50;8.25;;;;;12.17;61.13;101711.34;5119634;27;45366;-70
2024/01/25 07:33:24;;;;;;;;;25.25;24.25;;;;;12.37;60.95;101741.88;5118887;27;45462;-69
2024/01/25 07:35:50;;;;;;;;;25.00;18.50;;;;;12.40;61.12;101741.16;5118849;27;45490;-70
2024/01/25 07:38:16;;;;;;;;;43.50;37.75;;;;;12.27;60.97;101714.41;5119069;27;45430;-71
2024/01/25 07:40:42;;;;;;;;;26.25;22.50;;;;;12.19;60.80;101701.84;5119430;27;45624;-70
2024/01/25 07:43:07;;;;;;;;;38.00;32.25;;;;;12.47;60.79;101743.16;5119010;27;45452;-70
2024/01/25 07:45:33;;;;;;;;;39.75;32.50;;;;;12.49;60.66;101750.28;5116653;27;46477;-69
2024/01/25 07:47:59;;;;;;;;;12.50;12.00;;;;;12.52;60.85;101760.00;5118931;27;45233;-69
2024/01/25 07:50:25;;;;;;;;;6.25;6.25;;;;;12.51;60.55;101756.50;5119176;27;45209;-69
2024/01/25 07:52:50;;;;;;;;;2.25;2.25;;;;;12.54;60.40;101764.47;5118674;27;45352;-71
2024/01/25 07:55:17;;;;;;;;;17.25;15.00;;;;;12.36;60.25;101729.63;5118751;27;45358;-69
2024/01/25 07:57:42;;;;;;;;;5.50;5.00;;;;;12.56;60.20;101766.25;5118969;27;45454;-69
2024/01/25 08:00:09;;;;;;;;;5.75;4.75;;;;;12.65;60.55;101777.09;5119007;27;45415;-69
2024/01/25 08:02:35;;;;;;;;;7.50;5.75;;;;;12.69;59.74;101776.41;5118986;27;46039;-69
2024/01/25 08:05:02;;;;;;;;;0.00;0.00;;;;;12.72;59.78;101781.78;5118955;27;45385;-68
2024/01/25 08:07:28;;;;;;;;;2.00;1.75;;;;;12.77;59.60;101777.59;5118926;27;45613;-70
2024/01/25 08:09:57;;;;;;;;;4.00;4.00;;;;;12.80;59.46;101783.00;5116379;27;45359;-69
2024/01/25 08:12:26;;;;;;;;;22.00;19.75;;;;;12.77;59.85;101780.22;5118408;27;46399;-71
2024/01/25 08:14:55;;;;;;;;;16.50;16.00;;;;;12.83;59.96;101797.94;5118604;27;45344;-70
2024/01/25 08:17:21;;;;;;;;;35.25;34.00;;;;;12.72;59.71;101776.53;5117864;27;45442;-71
2024/01/25 08:19:46;;;;;;;;;15.75;14.00;;;;;12.63;59.30;101755.19;5118858;27;45234;-71
2024/01/25 08:22:12;;;;;;;;;29.00;27.00;;;;;12.89;59.25;101792.94;5118381;27;45313;-70
2024/01/25 08:24:41;;;;;;;;;31.25;29.75;;;;;12.86;59.61;101791.09;5118447;27;45388;-70
2024/01/25 08:27:07;;;;;;;;;16.00;14.75;;;;;12.55;59.39;101728.66;5119006;27;45451;-68
2024/01/25 08:29:33;;;;;;;;;12.75;12.75;;;;;13.04;59.20;101818.91;5116255;27;45437;-69
2024/01/25 08:31:59;;;;;;;;;5.00;4.00;;;;;13.08;58.96;101811.22;5118379;27;45521;-68
2024/01/25 08:34:24;;;;;;;;;1.00;1.00;;;;;13.17;58.55;101818.56;5118437;27;45662;-70
2024/01/25 08:36:50;;;;;;;;;1.00;1.00;;;;;13.01;58.53;101774.19;5118393;27;45502;-71
2024/01/25 08:39:16;;;;;;;;;0.67;0.67;;;;;13.32;57.94;101816.56;5118601;27;45489;-69
2024/01/25 08:41:42;;;;;;;;;4.00;4.00;;;;;13.31;58.10;101811.28;5117914;27;45490;-70
2024/01/25 08:44:08;;;;;;;;;36.25;28.50;;;;;13.47;57.81;101823.28;5117449;27;45232;-71
2024/01/25 08:46:34;;;;;;;;;51.00;40.00;;;;;13.55;58.36;101832.34;5118257;27;45489;-69
2024/01/25 08:49:00;;;;;;;;;3.00;3.00;;;;;13.61;57.89;101835.19;5118424;27;45282;-70
2024/01/25 08:51:25;;;;;;;;;2.00;1.00;;;;;13.66;56.94;101835.34;5116758;27;45872;-70
2024/01/25 08:53:52;;;;;;;;;14.25;12.50;;;;;13.35;56.30;101773.81;5116650;27;45179;-68
2024/01/25 08:56:18;;;;;;;;;16.00;13.00;;;;;13.88;56.83;101852.81;5112076;27;45479;-70
2024/01/25 08:58:44;;;;;;;;;0.00;0.00;;;;;14.03;55.76;101849.88;5116785;27;45479;-70
2024/01/25 09:01:10;;;;;;;;;0.00;0.00;;;;;14.06;54.10;101827.22;5115957;27;45596;-71
2024/01/25 09:03:36;;;;;;;;;16.50;14.00;;;;;14.38;54.70;101873.88;5117019;27;45382;-70
2024/01/25 09:06:05;;;;;;;;;4.75;4.00;;;;;14.53;55.61;101872.69;5111648;27;45407;-68
2024/01/25 09:08:32;;;;;;;;;4.25;2.75;;;;;15.10;56.60;101876.41;5116059;27;45447;-71
2024/01/25 09:10:58;;;;;;;;;1.00;1.00;;;;;16.24;54.91;101864.94;5116390;27;45426;-71
2024/01/25 09:13:24;;;;;;;;;2.00;1.00;;;;;17.76;50.54;101875.75;5116617;27;45480;-72
2024/01/25 09:15:50;;;;;;;;;1.00;1.00;;;;;19.32;46.85;101876.00;5115328;27;45586;-69
2024/01/25 09:18:15;;;;;;;;;19.00;16.50;;;;;20.66;44.70;101863.59;5114867;27;45465;-69
2024/01/25 09:20:44;;;;;;;;;35.75;32.50;;;;;20.59;42.30;101712.19;5115671;27;45589;-68
2024/01/25 09:23:09;;;;;;;;;2.00;2.00;;;;;21.96;41.39;101878.66;5116344;27;45493;-68
2024/01/25 09:25:35;;;;;;;;;7.67;7.00;;;;;22.36;40.93;101872.59;5115978;27;45353;-70
2024/01/25 09:28:01;;;;;;;;;6.33;6.33;;;;;22.84;41.99;101892.22;5116179;27;45253;-69
2024/01/25 09:30:27;;;;;;;;;4.33;4.00;;;;;23.41;40.42;101898.41;5114747;27;45354;-69
2024/01/25 09:32:52;;;;;;;;;5.00;4.00;;;;;23.76;39.51;101891.25;5116033;27;45305;-69
2024/01/25 09:35:18;;;;;;;;;5.67;5.67;;;;;24.06;38.41;101892.94;5114992;27;45633;-67
2024/01/25 09:37:44;;;;;;;;;9.00;8.33;;;;;24.36;37.84;101888.34;5116139;27;45482;-68
2024/01/25 09:40:10;;;;;;;;;5.00;5.00;;;;;24.27;37.03;101894.59;5116132;27;45445;-68
2024/01/25 09:42:36;;;;;;;;;8.00;8.00;;;;;24.21;37.16;101900.88;5115905;27;45578;-69
2024/01/25 09:45:07;;;;;;;;;9.33;8.00;;;;;24.24;36.65;101881.28;5116218;27;45502;-68
2024/01/25 09:47:33;;;;;;;;;12.33;12.00;;;;;24.44;37.17;101905.19;5116033;27;45408;-70
2024/01/25 09:49:58;;;;;;;;;6.33;6.00;;;;;24.57;37.56;101904.25;5115616;27;45470;-68
2024/01/25 09:52:25;;;;;;;;;6.67;6.67;;;;;24.68;38.90;101908.66;5064782;27;1377000;-70
2024/01/25 09:54:53;;;;;;;;;8.00;7.00;;;;;24.61;39.34;101914.03;5114692;27;45406;-70
2024/01/25 09:57:24;;;;;;;;;14.00;12.33;;;;;24.64;38.08;101904.22;5117229;27;45391;-71
2024/01/25 09:59:54;;;;;;;;;9.67;8.67;;;;;24.28;39.13;101879.47;5116773;27;45474;-69
2024/01/25 10:02:20;;;;;;;;;8.33;8.33;;;;;24.33;38.47;101921.28;5116335;27;45479;-68
2024/01/25 10:04:51;;;;;;;;;11.33;10.33;;;;;24.01;39.85;101911.66;5117598;27;45463;-70
2024/01/25 10:07:36;;;;;;;;;8.33;7.00;;;;;23.78;40.76;101934.84;5117739;27;45518;-68
2024/01/25 10:10:01;;;;;;;;;10.00;10.00;;;;;23.65;41.76;101939.28;5117066;27;45375;-68
2024/01/25 10:12:27;;;;;;;;;9.00;9.00;;;;;23.53;42.30;101931.31;5117539;27;45429;-69
2024/01/25 10:14:53;;;;;;;;;13.67;11.00;;;;;23.45;42.66;101935.75;5117834;27;45498;-69
2024/01/25 10:17:18;;;;;;;;;11.33;10.00;;;;;23.25;42.83;101923.34;5118001;27;45249;-68
2024/01/25 10:19:44;;;;;;;;;10.67;9.33;;;;;23.11;43.25;101943.78;5117602;27;45987;-69
2024/01/25 10:22:12;;;;;;;;;12.33;10.33;;;;;22.87;44.69;101942.84;5117978;27;45723;-70
2024/01/25 10:24:39;;;;;;;;;9.33;9.00;;;;;22.84;45.42;101951.72;5117729;27;45497;-68
2024/01/25 10:27:05;;;;;;;;;11.33;11.33;;;;;22.68;45.63;101965.91;5117687;27;45392;-70
2024/01/25 10:29:30;;;;;;;;;12.33;11.33;;;;;22.56;46.50;101971.19;5117494;27;46042;-70
2024/01/25 10:31:56;;;;;;;;;13.00;9.67;;;;;22.54;46.63;101976.53;5117398;27;45478;-70
2024/01/25 10:34:24;;;;;;;;;16.00;15.33;;;;;22.57;47.58;101983.63;5117347;27;45518;-69
2024/01/25 10:36:52;;;;;;;;;23.00;22.00;;;;;22.53;48.58;101993.38;5117351;27;45221;-71
2024/01/25 10:39:18;;;;;;;;;25.33;21.00;;;;;22.43;48.73;101989.78;5117223;27;45517;-70
2024/01/25 10:41:50;;;;;;;;;19.00;17.33;;;;;22.37;49.30;101988.88;5119615;27;45318;-70
2024/01/25 10:44:19;;;;;;;;;17.67;17.67;;;;;22.35;49.81;101999.50;5120869;27;45475;-69
2024/01/25 10:46:47;;;;;;;;;20.67;18.00;;;;;22.37;50.06;101999.53;5121499;27;45420;-70
2024/01/25 10:49:13;;;;;;;;;19.00;17.33;;;;;22.17;50.57;102010.06;5120656;27;46355;-68
2024/01/25 10:51:41;;;;;;;;;26.25;24.00;;;;;22.11;50.74;101986.06;5120567;27;45428;-68
2024/01/25 10:54:12;;;;;;;;;23.33;20.00;;;;;22.34;49.87;102010.16;5120943;27;45478;-69
2024/01/25 10:56:46;;;;;;;;;23.67;21.00;;;;;22.22;50.47;102009.19;5120616;27;45424;-68
2024/01/25 10:59:12;;;;;;;;;24.67;23.00;;;;;22.08;51.53;102012.66;5120588;27;46253;-68
2024/01/25 11:01:38;;;;;;;;;19.67;17.33;;;;;22.10;51.07;102025.06;5120508;27;45237;-68
2024/01/25 11:04:12;;;;;;;;;23.33;20.33;;;;;22.05;50.91;102021.50;5120462;27;45431;-68
2024/01/25 11:06:38;;;;;;;;;22.67;19.00;;;;;22.08;51.02;102020.63;5120832;27;45338;-71
2024/01/25 11:09:05;;;;;;;;;25.67;23.33;;;;;22.13;51.10;102010.91;5120456;27;45521;-68
2024/01/25 11:11:32;;;;;;;;;25.00;21.00;;;;;22.09;51.24;101980.72;5120308;27;45411;-71
2024/01/25 11:13:59;;;;;;;;;23.33;18.67;;;;;22.21;51.03;101996.75;5120327;27;45232;-71